Time;durP1;ratioP1;P1;durP2;ratioP2;P2;SDS_P1;SDS_P2;PMS_P1;PMS_P2;Temp;Humidity;BMP_temperature;BMP_pressure;BME280_temperature;BME280_humidity;BME280_pressure;Samples;Min_cycle;Max_cycle;Signal;HPM_P1;HPM_P2
2023/05/21 00:02:03;;;;;;;7.15;5.03;;;;;;;;;;5103780;27;20531;-72
2023/05/21 00:04:30;;;;;;;8.13;5.70;;;;;;;;;;5104403;27;20036;-72
2023/05/21 00:06:57;;;;;;;9.25;5.30;;;;;;;;;;5103550;28;20032;-72
2023/05/21 00:09:23;;;;;;;9.15;5.15;;;;;;;;;;5096201;27;20028;-72
2023/05/21 00:11:48;;;;;;;7.78;5.55;;;;;;;;;;5098155;27;20046;-72
2023/05/21 00:14:14;;;;;;;10.02;5.47;;;;;;;;;;5094968;27;20652;-72
2023/05/21 00:16:39;;;;;;;9.25;5.57;;;;;;;;;;5100168;27;20028;-72
2023/05/21 00:19:05;;;;;;;6.90;5.28;;;;;;;;;;5101428;27;20047;-72
2023/05/21 00:21:30;;;;;;;7.30;5.13;;;;;;;;;;5104711;27;20025;-72
2023/05/21 00:23:56;;;;;;;8.80;5.43;;;;;;;;;;5089601;27;20086;-72
2023/05/21 00:26:22;;;;;;;7.70;5.28;;;;;;;;;;5095061;27;20046;-72
2023/05/21 00:28:48;;;;;;;8.43;5.20;;;;;;;;;;5102394;27;20039;-72
2023/05/21 00:31:14;;;;;;;10.18;5.18;;;;;;;;;;5100212;27;20524;-72
2023/05/21 00:33:40;;;;;;;7.28;5.40;;;;;;;;;;5099242;28;20008;-72
2023/05/21 00:36:06;;;;;;;9.52;5.50;;;;;;;;;;5098608;27;20047;-71
2023/05/21 00:38:31;;;;;;;7.30;4.80;;;;;;;;;;5102255;28;20573;-72
2023/05/21 00:41:01;;;;;;;11.32;5.40;;;;;;;;;;5103622;27;20155;-71
2023/05/21 00:43:26;;;;;;;7.35;5.10;;;;;;;;;;5102205;27;20040;-72
2023/05/21 00:45:52;;;;;;;7.28;5.03;;;;;;;;;;5107386;28;20034;-72
2023/05/21 00:48:19;;;;;;;6.65;5.13;;;;;;;;;;5106322;27;20028;-72
2023/05/21 00:50:45;;;;;;;8.10;4.72;;;;;;;;;;5106815;27;20081;-72
2023/05/21 00:53:12;;;;;;;5.93;4.65;;;;;;;;;;5090451;27;20039;-72
2023/05/21 00:55:38;;;;;;;7.35;4.68;;;;;;;;;;5104659;27;20043;-72
2023/05/21 00:58:04;;;;;;;9.45;5.10;;;;;;;;;;5103412;27;20027;-72
2023/05/21 01:00:32;;;;;;;7.97;5.18;;;;;;;;;;5107989;28;20123;-72
2023/05/21 01:02:58;;;;;;;7.53;4.65;;;;;;;;;;5094721;27;20039;-72
2023/05/21 01:05:23;;;;;;;7.57;5.15;;;;;;;;;;5108123;27;20032;-72
2023/05/21 01:07:49;;;;;;;6.97;4.93;;;;;;;;;;5108541;27;20028;-72
2023/05/21 01:10:14;;;;;;;7.70;5.28;;;;;;;;;;5102032;27;20026;-72
2023/05/21 01:12:42;;;;;;;7.18;5.00;;;;;;;;;;5100957;27;20011;-72
2023/05/21 01:15:09;;;;;;;7.80;5.32;;;;;;;;;;5100003;28;20028;-72
2023/05/21 01:17:35;;;;;;;7.30;5.22;;;;;;;;;;5104536;27;20116;-72
2023/05/21 01:20:08;;;;;;;14.52;5.10;;;;;;;;;;5100216;27;20122;-72
2023/05/21 01:22:34;;;;;;;7.97;5.05;;;;;;;;;;5096276;27;20044;-72
2023/05/21 01:25:01;;;;;;;7.10;5.00;;;;;;;;;;5106963;28;20054;-72
2023/05/21 01:27:27;;;;;;;7.25;4.72;;;;;;;;;;5102746;28;20020;-72
2023/05/21 01:29:52;;;;;;;10.00;5.18;;;;;;;;;;5094160;28;20145;-72
2023/05/21 01:32:55;;;;;;;6.82;4.90;;;;;;;;;;5099981;27;20034;-72
2023/05/21 01:35:34;;;;;;;8.75;5.20;;;;;;;;;;5106332;27;20028;-72
2023/05/21 01:38:40;;;;;;;8.82;5.50;;;;;;;;;;5096094;28;20102;-72
2023/05/21 01:41:10;;;;;;;8.27;5.38;;;;;;;;;;5105818;28;20031;-72
2023/05/21 01:43:41;;;;;;;7.40;4.82;;;;;;;;;;5098609;27;20119;-72
2023/05/21 01:46:09;;;;;;;11.80;4.80;;;;;;;;;;5100046;27;20058;-72
2023/05/21 01:48:35;;;;;;;7.70;4.93;;;;;;;;;;5098871;28;20016;-72
2023/05/21 01:51:03;;;;;;;7.55;5.45;;;;;;;;;;5098959;27;20460;-72
2023/05/21 01:53:29;;;;;;;7.13;4.60;;;;;;;;;;5092909;28;20020;-72
2023/05/21 01:55:54;;;;;;;7.05;4.63;;;;;;;;;;5098500;27;20027;-72
2023/05/21 01:58:21;;;;;;;8.05;5.43;;;;;;;;;;5106292;27;20055;-72
2023/05/21 02:00:49;;;;;;;8.32;5.22;;;;;;;;;;5105113;27;20036;-72
2023/05/21 02:03:15;;;;;;;8.48;5.30;;;;;;;;;;5111167;27;20023;-72
2023/05/21 02:05:41;;;;;;;8.52;5.10;;;;;;;;;;5104136;27;20402;-72
2023/05/21 02:08:10;;;;;;;10.20;4.70;;;;;;;;;;5094451;27;20409;-72
2023/05/21 02:10:35;;;;;;;9.15;5.07;;;;;;;;;;5096408;28;20040;-72
2023/05/21 02:13:01;;;;;;;8.65;4.97;;;;;;;;;;5105092;27;20378;-72
2023/05/21 02:15:26;;;;;;;10.10;5.03;;;;;;;;;;5097488;28;20028;-72
2023/05/21 02:17:52;;;;;;;7.50;4.90;;;;;;;;;;5093206;27;20115;-72
2023/05/21 02:20:18;;;;;;;8.82;5.13;;;;;;;;;;5102469;27;20028;-71
2023/05/21 02:22:46;;;;;;;10.38;5.32;;;;;;;;;;5097052;27;20039;-72
2023/05/21 02:25:13;;;;;;;8.50;5.43;;;;;;;;;;5106135;27;20019;-72
2023/05/21 02:27:39;;;;;;;7.10;5.30;;;;;;;;;;5110330;28;20016;-72
2023/05/21 02:30:07;;;;;;;8.30;5.10;;;;;;;;;;5107910;27;20037;-72
2023/05/21 02:32:33;;;;;;;8.27;4.95;;;;;;;;;;5092393;27;20078;-72
2023/05/21 02:35:00;;;;;;;8.40;5.25;;;;;;;;;;5096366;27;20122;-72
2023/05/21 02:37:26;;;;;;;7.13;5.45;;;;;;;;;;5104740;27;20024;-72
2023/05/21 02:39:55;;;;;;;6.10;5.00;;;;;;;;;;5103129;28;20054;-72
2023/05/21 02:42:22;;;;;;;9.18;4.97;;;;;;;;;;5093350;28;20118;-72
2023/05/21 02:44:47;;;;;;;8.35;5.40;;;;;;;;;;5086833;28;20039;-72
2023/05/21 02:47:13;;;;;;;9.52;5.30;;;;;;;;;;5104115;28;20031;-72
2023/05/21 02:49:38;;;;;;;7.75;5.10;;;;;;;;;;5094904;27;20036;-72
2023/05/21 02:52:04;;;;;;;7.68;5.47;;;;;;;;;;5094156;28;20059;-72
2023/05/21 02:54:29;;;;;;;7.15;5.03;;;;;;;;;;5094238;28;20068;-72
2023/05/21 02:56:55;;;;;;;6.30;5.10;;;;;;;;;;5104333;27;20104;-72
2023/05/21 02:59:20;;;;;;;9.07;4.93;;;;;;;;;;5103861;27;20435;-72
2023/05/21 03:01:46;;;;;;;8.25;5.50;;;;;;;;;;5098725;27;20067;-72
2023/05/21 03:04:11;;;;;;;8.73;5.45;;;;;;;;;;5102168;27;20097;-72
2023/05/21 03:06:36;;;;;;;7.88;5.47;;;;;;;;;;5091665;28;20019;-72
2023/05/21 03:09:04;;;;;;;8.13;5.60;;;;;;;;;;5099614;27;20032;-72
2023/05/21 03:11:30;;;;;;;7.65;5.40;;;;;;;;;;5100707;27;20036;-72
2023/05/21 03:13:55;;;;;;;7.93;5.40;;;;;;;;;;5101615;27;20040;-72
2023/05/21 03:16:21;;;;;;;9.52;5.40;;;;;;;;;;5086374;28;20051;-72
2023/05/21 03:18:46;;;;;;;8.32;5.82;;;;;;;;;;5101434;28;20019;-72
2023/05/21 03:21:14;;;;;;;8.45;5.55;;;;;;;;;;5097771;28;20081;-72
2023/05/21 03:23:40;;;;;;;8.98;5.55;;;;;;;;;;5099906;28;20032;-72
2023/05/21 03:26:06;;;;;;;14.32;5.90;;;;;;;;;;5096873;27;20035;-72
2023/05/21 03:28:31;;;;;;;8.68;5.53;;;;;;;;;;5097092;27;20059;-72
2023/05/21 03:30:57;;;;;;;11.82;5.80;;;;;;;;;;5097161;28;20596;-72
2023/05/21 03:33:22;;;;;;;8.05;5.30;;;;;;;;;;5102144;27;20084;-72
2023/05/21 03:35:48;;;;;;;10.27;5.88;;;;;;;;;;5100237;27;20040;-72
2023/05/21 03:38:13;;;;;;;8.85;6.05;;;;;;;;;;5103922;27;20576;-72
2023/05/21 03:40:38;;;;;;;8.85;6.10;;;;;;;;;;5101817;27;20155;-72
2023/05/21 03:43:04;;;;;;;8.15;5.10;;;;;;;;;;5093600;27;21186;-72
2023/05/21 03:45:29;;;;;;;9.80;5.47;;;;;;;;;;5098314;28;20016;-72
2023/05/21 03:47:55;;;;;;;9.02;5.63;;;;;;;;;;5106340;28;20032;-72
2023/05/21 03:50:20;;;;;;;7.70;5.60;;;;;;;;;;5105072;27;20087;-72
2023/05/21 03:52:45;;;;;;;13.20;6.18;;;;;;;;;;5100362;27;20024;-72
2023/05/21 03:55:11;;;;;;;8.90;5.85;;;;;;;;;;5096573;27;20039;-72
2023/05/21 03:57:36;;;;;;;10.35;6.13;;;;;;;;;;5095386;28;20025;-72
2023/05/21 04:00:03;;;;;;;8.23;5.18;;;;;;;;;;5095448;27;20517;-72
2023/05/21 04:02:29;;;;;;;10.20;5.38;;;;;;;;;;5099101;27;20047;-72
2023/05/21 04:04:54;;;;;;;8.13;5.60;;;;;;;;;;5098404;27;20051;-72
2023/05/21 04:07:21;;;;;;;11.18;5.85;;;;;;;;;;5100901;27;20073;-72
2023/05/21 04:09:46;;;;;;;8.65;5.95;;;;;;;;;;5100487;28;20024;-72
2023/05/21 04:12:12;;;;;;;8.52;6.20;;;;;;;;;;5105323;27;20039;-72
2023/05/21 04:14:37;;;;;;;13.68;6.45;;;;;;;;;;5096419;28;20042;-72
2023/05/21 04:17:04;;;;;;;9.77;5.82;;;;;;;;;;5106026;27;20032;-72
2023/05/21 04:19:30;;;;;;;11.07;5.82;;;;;;;;;;5103230;27;20042;-72
2023/05/21 04:21:56;;;;;;;9.35;5.82;;;;;;;;;;5099080;27;20031;-72
2023/05/21 04:24:22;;;;;;;9.88;6.10;;;;;;;;;;5094919;28;20028;-72
2023/05/21 04:26:48;;;;;;;9.55;6.32;;;;;;;;;;5106723;27;20076;-72
2023/05/21 04:29:16;;;;;;;11.70;6.20;;;;;;;;;;5103548;27;20070;-72
2023/05/21 04:31:42;;;;;;;11.30;6.20;;;;;;;;;;5096891;27;20031;-72
2023/05/21 04:34:08;;;;;;;9.88;6.35;;;;;;;;;;5111759;27;20049;-72
2023/05/21 04:36:34;;;;;;;7.82;5.72;;;;;;;;;;5103102;27;20065;-72
2023/05/21 04:39:00;;;;;;;9.82;6.20;;;;;;;;;;5101979;28;20031;-72
2023/05/21 04:41:25;;;;;;;12.13;6.45;;;;;;;;;;5104831;27;20109;-72
2023/05/21 04:43:53;;;;;;;8.88;6.05;;;;;;;;;;5102271;27;20516;-72
2023/05/21 04:46:23;;;;;;;12.38;6.18;;;;;;;;;;5106727;27;20471;-72
2023/05/21 04:48:52;;;;;;;11.10;6.35;;;;;;;;;;5105844;28;20031;-72
2023/05/21 04:51:18;;;;;;;9.65;6.28;;;;;;;;;;5100563;27;20113;-72
2023/05/21 04:53:43;;;;;;;11.98;7.13;;;;;;;;;;5105588;28;20051;-72
2023/05/21 04:56:08;;;;;;;11.70;6.82;;;;;;;;;;5092398;28;20874;-72
2023/05/21 04:58:34;;;;;;;9.70;6.28;;;;;;;;;;5107878;27;20047;-72
2023/05/21 05:01:01;;;;;;;9.77;6.65;;;;;;;;;;5095375;27;20043;-72
2023/05/21 05:03:27;;;;;;;12.52;6.18;;;;;;;;;;5106750;28;20048;-72
2023/05/21 05:05:53;;;;;;;11.65;7.07;;;;;;;;;;5106809;27;20036;-72
2023/05/21 05:08:18;;;;;;;9.88;6.50;;;;;;;;;;5106017;27;20464;-72
2023/05/21 05:10:43;;;;;;;9.70;6.38;;;;;;;;;;5105165;27;20067;-72
2023/05/21 05:13:09;;;;;;;9.60;6.65;;;;;;;;;;5111013;27;20016;-72
2023/05/21 05:15:34;;;;;;;11.23;6.97;;;;;;;;;;5096473;27;20020;-72
2023/05/21 05:18:00;;;;;;;14.88;7.22;;;;;;;;;;5099450;27;20413;-72
2023/05/21 05:20:26;;;;;;;10.45;7.03;;;;;;;;;;5100807;27;20032;-72
2023/05/21 05:22:51;;;;;;;14.88;8.30;;;;;;;;;;5106482;28;20080;-72
2023/05/21 05:25:16;;;;;;;14.52;8.00;;;;;;;;;;5101075;28;20563;-72
2023/05/21 05:27:42;;;;;;;11.98;7.68;;;;;;;;;;5106952;27;20184;-72
2023/05/21 05:30:08;;;;;;;12.95;8.27;;;;;;;;;;5102618;27;20128;-72
2023/05/21 05:32:33;;;;;;;11.32;7.90;;;;;;;;;;5092484;27;20055;-72
2023/05/21 05:34:59;;;;;;;13.02;8.18;;;;;;;;;;5095530;27;20035;-72
2023/05/21 05:37:24;;;;;;;12.15;8.18;;;;;;;;;;5098812;28;20047;-72
2023/05/21 05:39:50;;;;;;;11.32;7.85;;;;;;;;;;5096166;28;20083;-72
2023/05/21 05:42:15;;;;;;;17.13;7.97;;;;;;;;;;5101372;27;20887;-72
2023/05/21 05:44:40;;;;;;;11.93;8.40;;;;;;;;;;5093569;28;20066;-72
2023/05/21 05:47:09;;;;;;;13.02;7.82;;;;;;;;;;5105817;27;20038;-72
2023/05/21 05:49:35;;;;;;;14.13;8.40;;;;;;;;;;5102017;27;20043;-72
2023/05/21 05:52:00;;;;;;;14.32;8.27;;;;;;;;;;5090451;27;20024;-72
2023/05/21 05:54:25;;;;;;;15.82;8.55;;;;;;;;;;5101150;27;20007;-72
2023/05/21 05:56:51;;;;;;;15.35;8.90;;;;;;;;;;5099158;27;20039;-72
2023/05/21 05:59:16;;;;;;;13.35;8.73;;;;;;;;;;5095483;27;20056;-72
2023/05/21 06:01:42;;;;;;;15.82;9.18;;;;;;;;;;5101153;27;20043;-72
2023/05/21 06:04:07;;;;;;;15.40;8.90;;;;;;;;;;5089934;27;20501;-72
2023/05/21 06:06:33;;;;;;;13.90;9.27;;;;;;;;;;5106964;27;20028;-72
2023/05/21 06:08:59;;;;;;;12.75;8.15;;;;;;;;;;5103025;27;20046;-72
2023/05/21 06:11:25;;;;;;;15.27;9.18;;;;;;;;;;5088348;27;20072;-72
2023/05/21 06:13:51;;;;;;;16.17;8.93;;;;;;;;;;5093304;27;20047;-72
2023/05/21 06:16:16;;;;;;;12.98;8.25;;;;;;;;;;5098234;28;20077;-72
2023/05/21 06:18:42;;;;;;;13.52;8.75;;;;;;;;;;5103710;27;20031;-72
2023/05/21 06:21:07;;;;;;;14.13;9.15;;;;;;;;;;5094156;27;20048;-72
2023/05/21 06:23:35;;;;;;;11.82;8.18;;;;;;;;;;5092297;27;20039;-72
2023/05/21 06:26:00;;;;;;;12.55;8.27;;;;;;;;;;5101140;27;20075;-72
2023/05/21 06:28:26;;;;;;;16.95;11.07;;;;;;;;;;5097685;27;20055;-72
2023/05/21 06:30:51;;;;;;;16.40;9.55;;;;;;;;;;5098008;27;20075;-72
2023/05/21 06:33:17;;;;;;;14.75;9.95;;;;;;;;;;5100518;27;20041;-72
2023/05/21 06:35:42;;;;;;;15.63;8.90;;;;;;;;;;5115404;27;20067;-72
2023/05/21 06:38:07;;;;;;;13.90;9.10;;;;;;;;;;5097844;27;20693;-72
2023/05/21 06:40:34;;;;;;;14.32;9.32;;;;;;;;;;5088995;28;20043;-72
2023/05/21 06:42:59;;;;;;;13.73;8.75;;;;;;;;;;5089258;27;20043;-72
2023/05/21 06:45:25;;;;;;;17.90;9.07;;;;;;;;;;5104361;27;20088;-72
2023/05/21 06:47:50;;;;;;;13.15;8.85;;;;;;;;;;5103446;27;20113;-72
2023/05/21 06:50:16;;;;;;;12.52;8.52;;;;;;;;;;5100892;27;20119;-72
2023/05/21 06:52:41;;;;;;;15.40;8.50;;;;;;;;;;5103273;27;20044;-71
2023/05/21 06:55:07;;;;;;;16.85;8.93;;;;;;;;;;5101730;28;20118;-72
2023/05/21 06:57:32;;;;;;;12.30;8.15;;;;;;;;;;5102793;27;20023;-72
2023/05/21 06:59:58;;;;;;;14.60;8.98;;;;;;;;;;5099458;28;20027;-72
2023/05/21 07:02:23;;;;;;;15.68;8.45;;;;;;;;;;5097994;27;20044;-72
2023/05/21 07:04:48;;;;;;;13.60;8.63;;;;;;;;;;5102590;27;20043;-72
2023/05/21 07:07:14;;;;;;;14.55;8.73;;;;;;;;;;5099646;27;20488;-72
2023/05/21 07:09:39;;;;;;;14.10;9.30;;;;;;;;;;5097427;28;20063;-72
2023/05/21 07:12:05;;;;;;;13.88;8.60;;;;;;;;;;5092706;28;20138;-72
2023/05/21 07:14:31;;;;;;;16.75;8.75;;;;;;;;;;5089556;27;20043;-72
2023/05/21 07:16:56;;;;;;;12.55;8.75;;;;;;;;;;5085062;28;20466;-72
2023/05/21 07:19:21;;;;;;;12.25;8.50;;;;;;;;;;5099336;27;20036;-71
2023/05/21 07:21:48;;;;;;;15.48;9.00;;;;;;;;;;5097274;28;20027;-72
2023/05/21 07:24:13;;;;;;;14.77;9.25;;;;;;;;;;5092761;27;20032;-72
2023/05/21 07:26:39;;;;;;;15.48;8.75;;;;;;;;;;5083892;28;20433;-72
2023/05/21 07:29:04;;;;;;;12.93;8.43;;;;;;;;;;5091566;28;20118;-72
2023/05/21 07:31:30;;;;;;;15.63;9.05;;;;;;;;;;5080387;28;20044;-72
2023/05/21 07:33:55;;;;;;;13.23;8.80;;;;;;;;;;5095724;28;20032;-72
2023/05/21 07:36:20;;;;;;;14.55;8.98;;;;;;;;;;5091713;27;20040;-72
2023/05/21 07:38:46;;;;;;;14.48;9.45;;;;;;;;;;5098656;27;20032;-72
2023/05/21 07:41:11;;;;;;;12.95;7.95;;;;;;;;;;5096201;27;20036;-72
2023/05/21 07:43:37;;;;;;;13.63;8.85;;;;;;;;;;5119450;27;20039;-72
2023/05/21 07:46:02;;;;;;;12.65;8.57;;;;;;;;;;5105745;27;20042;-72
2023/05/21 07:48:28;;;;;;;13.82;8.95;;;;;;;;;;5104797;27;20020;-72
2023/05/21 07:50:55;;;;;;;15.73;8.73;;;;;;;;;;5102204;27;20055;-72
2023/05/21 07:53:20;;;;;;;12.85;8.48;;;;;;;;;;5104262;27;20595;-72
2023/05/21 07:55:48;;;;;;;13.55;8.77;;;;;;;;;;5106266;28;20099;-71
2023/05/21 07:58:16;;;;;;;16.00;9.73;;;;;;;;;;5111609;27;20039;-72
2023/05/21 08:00:46;;;;;;;13.50;9.30;;;;;;;;;;5098070;27;20066;-72
2023/05/21 08:03:15;;;;;;;11.68;8.55;;;;;;;;;;5101763;27;20040;-71
2023/05/21 08:05:47;;;;;;;17.10;9.23;;;;;;;;;;5101131;27;20039;-72
2023/05/21 08:08:14;;;;;;;13.55;8.95;;;;;;;;;;5098006;27;20524;-71
2023/05/21 08:10:40;;;;;;;12.40;7.63;;;;;;;;;;5100644;27;20424;-72
2023/05/21 08:13:05;;;;;;;14.23;7.43;;;;;;;;;;5100232;27;20019;-72
2023/05/21 08:15:30;;;;;;;11.45;7.88;;;;;;;;;;5085366;27;20051;-72
2023/05/21 08:17:56;;;;;;;12.02;8.55;;;;;;;;;;5099878;27;20055;-72
2023/05/21 08:20:21;;;;;;;13.45;8.50;;;;;;;;;;5095270;27;20044;-72
2023/05/21 08:22:47;;;;;;;15.40;8.90;;;;;;;;;;5099438;27;20058;-72
2023/05/21 08:25:12;;;;;;;13.30;9.20;;;;;;;;;;5092563;27;20492;-72
2023/05/21 08:27:38;;;;;;;16.15;8.48;;;;;;;;;;5103610;27;20036;-72
2023/05/21 08:30:04;;;;;;;13.68;9.10;;;;;;;;;;5099103;27;20032;-72
2023/05/21 08:32:29;;;;;;;14.57;8.93;;;;;;;;;;5097091;27;20044;-72
2023/05/21 08:34:56;;;;;;;14.38;8.60;;;;;;;;;;5095570;27;20049;-72
2023/05/21 08:37:21;;;;;;;14.88;8.88;;;;;;;;;;5102332;27;20066;-72
2023/05/21 08:39:47;;;;;;;11.73;8.13;;;;;;;;;;5096266;27;20062;-72
2023/05/21 08:42:23;;;;;;;14.25;9.73;;;;;;;;;;5095005;27;20509;-72
2023/05/21 08:44:53;;;;;;;15.10;8.65;;;;;;;;;;5093462;27;20483;-72
2023/05/21 08:47:24;;;;;;;18.85;9.18;;;;;;;;;;5094768;27;20089;-71
2023/05/21 08:49:51;;;;;;;16.08;7.82;;;;;;;;;;5095892;28;20447;-72
2023/05/21 08:52:17;;;;;;;13.35;9.15;;;;;;;;;;5094744;27;20019;-72
2023/05/21 08:54:44;;;;;;;13.15;7.90;;;;;;;;;;5103695;27;20023;-72
2023/05/21 08:57:10;;;;;;;15.15;8.80;;;;;;;;;;5100345;27;20069;-72
2023/05/21 08:59:38;;;;;;;15.63;8.93;;;;;;;;;;5099705;27;20071;-72
2023/05/21 09:02:04;;;;;;;17.17;8.75;;;;;;;;;;5094894;27;20031;-72
2023/05/21 09:04:30;;;;;;;12.70;8.30;;;;;;;;;;5092918;27;23707;-72
2023/05/21 09:06:58;;;;;;;12.70;8.25;;;;;;;;;;5098864;27;20024;-72
2023/05/21 09:09:32;;;;;;;13.90;8.70;;;;;;;;;;5098363;27;20031;-72
2023/05/21 09:11:58;;;;;;;18.70;9.20;;;;;;;;;;5095393;27;20124;-72
2023/05/21 09:14:25;;;;;;;14.63;8.25;;;;;;;;;;5097878;27;20116;-72
2023/05/21 09:16:51;;;;;;;14.65;9.10;;;;;;;;;;5098053;27;20032;-72
2023/05/21 09:19:19;;;;;;;15.07;9.43;;;;;;;;;;5104460;27;20037;-72
2023/05/21 09:21:45;;;;;;;15.77;8.15;;;;;;;;;;5103699;27;20016;-71
2023/05/21 09:24:10;;;;;;;15.30;9.10;;;;;;;;;;5088618;28;20504;-72
2023/05/21 09:26:36;;;;;;;14.23;8.15;;;;;;;;;;5090791;27;20028;-72
2023/05/21 09:29:01;;;;;;;13.23;8.65;;;;;;;;;;5103612;27;20024;-72
2023/05/21 09:31:28;;;;;;;12.20;8.25;;;;;;;;;;5095069;28;20034;-72
2023/05/21 09:33:56;;;;;;;14.88;8.27;;;;;;;;;;5085697;27;20024;-72
2023/05/21 09:36:22;;;;;;;14.60;8.95;;;;;;;;;;5088761;27;20033;-72
2023/05/21 09:38:49;;;;;;;13.10;7.72;;;;;;;;;;5100163;27;20083;-72
2023/05/21 09:41:14;;;;;;;13.57;9.20;;;;;;;;;;5093522;27;20425;-72
2023/05/21 09:43:43;;;;;;;15.90;8.63;;;;;;;;;;5091819;27;20533;-72
2023/05/21 09:46:09;;;;;;;15.13;9.23;;;;;;;;;;5098021;27;20452;-72
2023/05/21 09:48:40;;;;;;;14.77;9.75;;;;;;;;;;5098013;27;20020;-72
2023/05/21 09:51:10;;;;;;;14.02;9.23;;;;;;;;;;5092583;27;20051;-72
2023/05/21 09:53:41;;;;;;;13.90;8.80;;;;;;;;;;5090843;27;20032;-72
2023/05/21 09:56:08;;;;;;;14.88;9.18;;;;;;;;;;5103703;27;20599;-72
2023/05/21 09:58:33;;;;;;;15.73;9.50;;;;;;;;;;5095612;27;20031;-72
2023/05/21 10:00:59;;;;;;;12.63;8.68;;;;;;;;;;5097142;27;20058;-72
2023/05/21 10:03:27;;;;;;;14.80;8.65;;;;;;;;;;5095342;27;20391;-71
2023/05/21 10:05:53;;;;;;;13.02;9.07;;;;;;;;;;5092563;27;20720;-71
2023/05/21 10:08:21;;;;;;;17.55;8.73;;;;;;;;;;5097726;27;20031;-72
2023/05/21 10:10:48;;;;;;;14.65;8.85;;;;;;;;;;5100472;27;20048;-71
2023/05/21 10:13:20;;;;;;;17.63;9.40;;;;;;;;;;5088360;27;20027;-72
2023/05/21 10:16:00;;;;;;;14.05;6.90;;;;;;;;;;5102714;27;20036;-71
2023/05/21 10:18:26;;;;;;;18.75;9.73;;;;;;;;;;5094064;27;20051;-72
2023/05/21 10:20:52;;;;;;;17.38;9.35;;;;;;;;;;5101387;27;20035;-72
2023/05/21 10:23:19;;;;;;;16.33;9.88;;;;;;;;;;5097746;27;20067;-72
2023/05/21 10:25:45;;;;;;;17.40;9.35;;;;;;;;;;5101989;28;20080;-72
2023/05/21 10:28:14;;;;;;;14.32;9.27;;;;;;;;;;5100510;27;20027;-72
2023/05/21 10:30:41;;;;;;;14.93;10.32;;;;;;;;;;5094760;28;21075;-72
2023/05/21 10:33:06;;;;;;;16.77;9.70;;;;;;;;;;5104550;27;20035;-71
2023/05/21 10:35:33;;;;;;;18.38;9.75;;;;;;;;;;5092390;27;20574;-71
2023/05/21 10:38:01;;;;;;;15.20;10.25;;;;;;;;;;5096237;28;20038;-72
2023/05/21 10:40:27;;;;;;;17.73;10.98;;;;;;;;;;5110205;27;20043;-71
2023/05/21 10:43:17;;;;;;;15.77;9.93;;;;;;;;;;5104975;27;20031;-72
2023/05/21 10:45:58;;;;;;;16.50;10.95;;;;;;;;;;5088654;27;20031;-71
2023/05/21 10:48:45;;;;;;;19.05;11.80;;;;;;;;;;5092641;27;20043;-71
2023/05/21 10:51:22;;;;;;;16.73;10.00;;;;;;;;;;5087640;27;20047;-71
2023/05/21 10:53:48;;;;;;;15.10;10.55;;;;;;;;;;5086973;27;20036;-72
2023/05/21 10:56:31;;;;;;;18.02;11.77;;;;;;;;;;5090884;27;20042;-72
2023/05/21 10:58:59;;;;;;;17.67;11.55;;;;;;;;;;5097278;27;20039;-72
2023/05/21 11:01:32;;;;;;;21.65;12.43;;;;;;;;;;5090000;27;20044;-71
2023/05/21 11:03:58;;;;;;;19.70;12.18;;;;;;;;;;5097525;27;20051;-71
2023/05/21 11:06:25;;;;;;;20.23;12.38;;;;;;;;;;5087337;27;20069;-72
2023/05/21 11:08:52;;;;;;;18.17;11.73;;;;;;;;;;5091890;27;20043;-72
2023/05/21 11:11:56;;;;;;;17.90;11.55;;;;;;;;;;5093075;27;20038;-71
2023/05/21 11:14:37;;;;;;;19.48;11.63;;;;;;;;;;5066482;28;20143;-71
2023/05/21 11:17:08;;;;;;;21.50;13.25;;;;;;;;;;5091903;27;20505;-72
2023/05/21 11:19:46;;;;;;;20.67;12.85;;;;;;;;;;5092544;28;20042;-72
2023/05/21 11:22:24;;;;;;;19.20;11.98;;;;;;;;;;5093992;27;20024;-71
2023/05/21 11:24:50;;;;;;;18.45;12.23;;;;;;;;;;5092196;28;20124;-71
2023/05/21 11:27:40;;;;;;;20.02;12.90;;;;;;;;;;5090489;27;20036;-71
2023/05/21 11:30:17;;;;;;;19.77;11.70;;;;;;;;;;5087310;28;20027;-72
2023/05/21 11:33:09;;;;;;;22.90;14.00;;;;;;;;;;5084799;28;20664;-72
2023/05/21 11:35:43;;;;;;;19.90;12.88;;;;;;;;;;5089329;27;20501;-72
2023/05/21 11:38:09;;;;;;;20.45;13.05;;;;;;;;;;5088911;27;20206;-71
2023/05/21 11:40:34;;;;;;;19.05;12.52;;;;;;;;;;5093020;28;20450;-72
2023/05/21 11:43:00;;;;;;;21.27;12.63;;;;;;;;;;5089515;28;20202;-71
2023/05/21 11:45:30;;;;;;;21.20;12.88;;;;;;;;;;5097200;28;20059;-71
2023/05/21 11:47:56;;;;;;;21.25;14.07;;;;;;;;;;5099007;27;20517;-71
2023/05/21 11:50:21;;;;;;;22.63;13.05;;;;;;;;;;5098528;28;20088;-71
2023/05/21 11:52:48;;;;;;;23.67;14.07;;;;;;;;;;5104469;27;20039;-71
2023/05/21 11:55:16;;;;;;;18.73;12.73;;;;;;;;;;5098703;27;20623;-71
2023/05/21 11:57:43;;;;;;;21.05;13.75;;;;;;;;;;5100024;28;20030;-71
2023/05/21 12:00:14;;;;;;;21.92;13.32;;;;;;;;;;5093604;27;20040;-71
2023/05/21 12:02:52;;;;;;;21.65;13.38;;;;;;;;;;5104141;27;20045;-72
2023/05/21 12:05:17;;;;;;;19.25;13.13;;;;;;;;;;5087676;28;20063;-71
2023/05/21 12:07:47;;;;;;;22.50;13.45;;;;;;;;;;5085857;28;20066;-72
2023/05/21 12:10:12;;;;;;;22.60;13.75;;;;;;;;;;5091358;28;20496;-72
2023/05/21 12:12:38;;;;;;;20.85;14.75;;;;;;;;;;5087119;28;20065;-72
2023/05/21 12:15:04;;;;;;;22.33;13.35;;;;;;;;;;5083683;27;20412;-71
2023/05/21 12:17:30;;;;;;;21.08;14.02;;;;;;;;;;5078874;28;20036;-72
2023/05/21 12:19:56;;;;;;;21.67;13.98;;;;;;;;;;5075018;28;20039;-71
2023/05/21 12:22:26;;;;;;;21.35;15.10;;;;;;;;;;5083562;28;20032;-71
2023/05/21 12:24:52;;;;;;;21.55;14.30;;;;;;;;;;5089319;28;20017;-72
2023/05/21 12:27:18;;;;;;;21.02;13.55;;;;;;;;;;5099625;27;20034;-71
2023/05/21 12:29:45;;;;;;;22.42;13.73;;;;;;;;;;5098719;27;20046;-71
2023/05/21 12:32:12;;;;;;;23.15;15.25;;;;;;;;;;5093783;28;20036;-73
2023/05/21 12:34:53;;;;;;;20.38;14.13;;;;;;;;;;5093171;27;20531;-71
2023/05/21 12:37:32;;;;;;;23.50;15.32;;;;;;;;;;5090859;27;20531;-71
2023/05/21 12:40:08;;;;;;;23.15;14.43;;;;;;;;;;5098466;27;20016;-71
2023/05/21 12:42:35;;;;;;;23.38;15.13;;;;;;;;;;5099233;28;20099;-71
2023/05/21 12:45:06;;;;;;;25.35;15.23;;;;;;;;;;5101813;27;20424;-71
2023/05/21 12:47:32;;;;;;;24.00;14.85;;;;;;;;;;5106882;27;20101;-71
2023/05/21 12:50:01;;;;;;;22.95;14.40;;;;;;;;;;5094656;27;20119;-71
2023/05/21 12:52:27;;;;;;;22.35;14.13;;;;;;;;;;5094467;27;20036;-71
2023/05/21 12:54:55;;;;;;;23.38;15.48;;;;;;;;;;5091764;27;20622;-71
2023/05/21 12:57:22;;;;;;;23.23;14.43;;;;;;;;;;5095478;27;20056;-71
2023/05/21 12:59:54;;;;;;;27.40;16.30;;;;;;;;;;5098156;27;20062;-71
2023/05/21 13:02:23;;;;;;;24.50;14.77;;;;;;;;;;5093884;28;20119;-71
2023/05/21 13:04:56;;;;;;;25.38;14.43;;;;;;;;;;5101957;27;20044;-71
2023/05/21 13:07:23;;;;;;;21.98;13.63;;;;;;;;;;5098747;27;20036;-71
2023/05/21 13:09:51;;;;;;;20.13;14.13;;;;;;;;;;5100429;27;20031;-71
2023/05/21 13:12:17;;;;;;;22.60;14.77;;;;;;;;;;5088292;28;20070;-71
2023/05/21 13:14:42;;;;;;;22.92;14.50;;;;;;;;;;5094377;27;20118;-71
2023/05/21 13:17:07;;;;;;;21.45;14.32;;;;;;;;;;5100211;27;20080;-71
2023/05/21 13:19:33;;;;;;;23.73;15.60;;;;;;;;;;5105809;27;20032;-71
2023/05/21 13:21:58;;;;;;;22.50;15.52;;;;;;;;;;5101176;28;20027;-71
2023/05/21 13:24:24;;;;;;;20.52;14.18;;;;;;;;;;5105447;27;20032;-71
2023/05/21 13:26:49;;;;;;;21.95;13.68;;;;;;;;;;5116403;27;20801;-71
2023/05/21 13:29:15;;;;;;;20.27;14.15;;;;;;;;;;5108622;27;20040;-71
2023/05/21 13:31:43;;;;;;;24.88;14.10;;;;;;;;;;5093191;27;20031;-72
2023/05/21 13:34:12;;;;;;;25.13;15.77;;;;;;;;;;5092632;27;20032;-71
2023/05/21 13:36:38;;;;;;;22.23;14.45;;;;;;;;;;5097129;27;20616;-71
2023/05/21 13:39:03;;;;;;;21.83;12.68;;;;;;;;;;5098518;27;20548;-71
2023/05/21 13:41:29;;;;;;;21.15;13.38;;;;;;;;;;5093848;27;20044;-72
2023/05/21 13:43:54;;;;;;;23.35;13.93;;;;;;;;;;5083004;27;20052;-71
2023/05/21 13:46:19;;;;;;;20.77;13.55;;;;;;;;;;5082078;27;21047;-71
2023/05/21 13:48:45;;;;;;;21.23;14.27;;;;;;;;;;5091687;27;20092;-71
2023/05/21 13:51:10;;;;;;;20.65;13.65;;;;;;;;;;5089983;27;20609;-71
2023/05/21 13:53:36;;;;;;;18.40;12.90;;;;;;;;;;5086654;27;20114;-71
2023/05/21 13:56:01;;;;;;;18.10;13.05;;;;;;;;;;5081180;27;20028;-71
2023/05/21 13:58:27;;;;;;;23.55;13.32;;;;;;;;;;5083869;28;20460;-72
2023/05/21 14:00:53;;;;;;;19.23;13.88;;;;;;;;;;5078591;28;21400;-72
2023/05/21 14:03:18;;;;;;;20.77;13.23;;;;;;;;;;5085190;27;20127;-72
2023/05/21 14:05:44;;;;;;;21.35;12.57;;;;;;;;;;5081671;27;20054;-72
2023/05/21 14:08:10;;;;;;;16.52;12.18;;;;;;;;;;5079715;27;20044;-72
2023/05/21 14:10:36;;;;;;;19.92;12.85;;;;;;;;;;5084104;27;20032;-72
2023/05/21 14:13:01;;;;;;;25.85;16.13;;;;;;;;;;5084630;27;20020;-72
2023/05/21 14:15:26;;;;;;;19.63;13.60;;;;;;;;;;5079517;28;20035;-72
2023/05/21 14:17:52;;;;;;;23.05;14.30;;;;;;;;;;5082614;27;20042;-72
2023/05/21 14:20:17;;;;;;;20.67;14.20;;;;;;;;;;5085166;27;20117;-72
2023/05/21 14:22:43;;;;;;;21.48;13.93;;;;;;;;;;5080193;27;20052;-72
2023/05/21 14:25:10;;;;;;;21.33;13.52;;;;;;;;;;5088153;27;20042;-72
2023/05/21 14:27:36;;;;;;;20.90;13.23;;;;;;;;;;5097911;28;20126;-72
2023/05/21 14:30:02;;;;;;;19.67;13.13;;;;;;;;;;5092744;27;20790;-72
2023/05/21 14:32:28;;;;;;;22.55;13.73;;;;;;;;;;5094250;27;20071;-72